Airfield :
LOGIN :

Register | Disclaimer

   EN    FR    IT 

 










Legend :    VFR   Marginal VFR   IFR   Intensive IFR   Very Intensive IFR
Visi :
Ceiling :
>= 8 km
>= 3000ft
5 to 8 km
1000 to 3000 ft
1500m to 5 km
500 to 1000 ft
800 to 1500m
200 to 500 ft
< 800m
< 200 ft
Symbols :   Thunderstorms  Fog  Heavy snow  Heavy precipitations  Wind > 20 kt
SIGMETs :     Misc.  Thunderstorms  Icing  Turbulence  Mountain Waves  Volcanic Ashes






- Airport Elevation : 215 ft
- IATA code : ABZ


EGPD - Aberdeen / Dyce

CURRENT METAR :
  • 032050Z AUTO 22006KT 9999 NCD 14/07 Q1012

EXPIRED METARs :
  • 032020Z AUTO 25004KT 220V290 9999 NCD 14/08 Q1012 NOSIG
  • 031950Z AUTO 26011KT 9999 NCD 15/07 Q1012 NOSIG
  • 031920Z AUTO 25010KT 9999 NCD 15/07 Q1012 NOSIG
  • 031850Z AUTO 25013KT 9999 NCD 16/07 Q1012 NOSIG
  • 031820Z AUTO 27011KT 9999 NCD 18/08 Q1012 NOSIG
  • 030520Z AUTO VRB01KT 9999 NCD 11/10 Q1012 NOSIG

TAF TAF EGPD
Valid from the 03 at 18:00 until the 04 at 18:00 UTC


031656Z 0318/0418 11008KT 9999 SCT030
BECMG 0318/0321 23010KT
PROB40
TEMPO 0318/0319 4000 SHRA
PROB30
TEMPO 0323/0402 6000 RA SHRA
BECMG 0408/0411 29012KT
PROB30
TEMPO 0409/0415 6000 SHRA
PROB30
TEMPO 0410/0418 29015G25KT



MET'MAP, your aeronautical weather chart ! - Copyright ORBIFLY December 2007 - Disclaimer

ORBIFLY MET'MAP TEAM :

Programming & Development : Alexandra Zaïnal
Original concept : Baudouin d'Aumeries
Technical & hardware support : Manuel Goepfert
Assistance : Marc-Olivier Méhu




SOURCES & CREDITS :

   NOAA